Airfield :
LOGIN :

Register | Disclaimer

   EN    FR    IT 

 










Legend :    VFR   Marginal VFR   IFR   Intensive IFR   Very Intensive IFR
Visi :
Ceiling :
>= 8 km
>= 3000ft
5 to 8 km
1000 to 3000 ft
1500m to 5 km
500 to 1000 ft
800 to 1500m
200 to 500 ft
< 800m
< 200 ft
Symbols :   Thunderstorms  Fog  Heavy snow  Heavy precipitations  Wind > 20 kt
SIGMETs :     Misc.  Thunderstorms  Icing  Turbulence  Mountain Waves  Volcanic Ashes






- Airport Elevation : 26 ft
- IATA code : GLA


EGPF - Glasgow

CURRENT METAR :
  • 272120Z AUTO 08004KT 9999 FEW037/// OVC043/// //////TCU 02/00 Q0985

EXPIRED METARs :
  • 272050Z AUTO VRB03KT 9999 BKN047 02/M00 Q0985
  • 272020Z AUTO 18003KT 9999 //////TCU 03/M00 Q0985
  • 271950Z AUTO 17005KT 9999 SCT045/// //////TCU 04/M00 Q0986
  • 271920Z AUTO 17009KT 9999 SCT035/// SCT045/// //////TCU 04/00 Q0986
  • 271850Z AUTO VRB02KT 9999 BKN036/// //////CB 04/00 Q0987

TAF TAF EGPF
Valid from the 27 at 18:00 until the 28 at 18:00 UTC


271658Z 2718/2818 19010KT 9999 SCT030
BECMG 2718/2721 VRB03KT
TEMPO 2719/2805 4000 RASN SHRASN BKN008
PROB40
TEMPO 2720/2805 1200 SN SHSN BKN004 BKN007CB
PROB40
TEMPO 2805/2809 3000 BR BKN004
BECMG 2809/2812 24012KT
TEMPO 2809/2818 25018G28KT 5000 SHRA BKN014CB
ATIS : +44 141 887 7449



MET'MAP, your aeronautical weather chart ! - Copyright ORBIFLY December 2007 - Disclaimer

ORBIFLY MET'MAP TEAM :

Programming & Development : Alexandra Zaïnal
Concept & original design : Baudouin d'Aumeries
Assistance for programming : Marc-Olivier Méhu
Technical & hardware support : Manuel Goepfert

Contact : metmap@orbifly.com




SOURCES & CREDITS :

   NOAA